sensor_id;sensor_type;location;lat;lon;timestamp;P1;durP1;ratioP1;P2;durP2;ratioP2
45764;SDS011;31474;45.332;10.230;2023-08-01T00:00:16;6.93;;;6.25;;
45764;SDS011;31474;45.332;10.230;2023-08-01T00:02:42;7.55;;;6.60;;
45764;SDS011;31474;45.332;10.230;2023-08-01T00:05:08;10.20;;;6.50;;
45764;SDS011;31474;45.332;10.230;2023-08-01T00:07:34;7.07;;;6.20;;
45764;SDS011;31474;45.332;10.230;2023-08-01T00:09:59;7.55;;;5.72;;
45764;SDS011;31474;45.332;10.230;2023-08-01T00:12:25;7.82;;;6.85;;
45764;SDS011;31474;45.332;10.230;2023-08-01T00:14:51;7.72;;;6.30;;
45764;SDS011;31474;45.332;10.230;2023-08-01T00:17:16;7.40;;;6.68;;
45764;SDS011;31474;45.332;10.230;2023-08-01T00:19:42;7.53;;;6.10;;
45764;SDS011;31474;45.332;10.230;2023-08-01T00:22:08;8.07;;;7.28;;
45764;SDS011;31474;45.332;10.230;2023-08-01T00:24:35;7.90;;;6.72;;
45764;SDS011;31474;45.332;10.230;2023-08-01T00:27:01;8.40;;;6.50;;
45764;SDS011;31474;45.332;10.230;2023-08-01T00:29:26;8.48;;;5.80;;
45764;SDS011;31474;45.332;10.230;2023-08-01T00:31:52;6.95;;;5.63;;
45764;SDS011;31474;45.332;10.230;2023-08-01T00:34:18;8.60;;;6.18;;
45764;SDS011;31474;45.332;10.230;2023-08-01T00:36:43;6.97;;;6.13;;
45764;SDS011;31474;45.332;10.230;2023-08-01T00:39:09;6.45;;;5.78;;
45764;SDS011;31474;45.332;10.230;2023-08-01T00:41:34;9.05;;;6.80;;
45764;SDS011;31474;45.332;10.230;2023-08-01T00:44:00;9.68;;;7.68;;
45764;SDS011;31474;45.332;10.230;2023-08-01T00:46:26;9.02;;;6.75;;
45764;SDS011;31474;45.332;10.230;2023-08-01T00:48:52;10.27;;;5.72;;
45764;SDS011;31474;45.332;10.230;2023-08-01T00:51:22;8.27;;;6.40;;
45764;SDS011;31474;45.332;10.230;2023-08-01T00:53:49;6.40;;;5.63;;
45764;SDS011;31474;45.332;10.230;2023-08-01T00:56:16;6.63;;;6.03;;
45764;SDS011;31474;45.332;10.230;2023-08-01T00:58:42;8.30;;;5.47;;
45764;SDS011;31474;45.332;10.230;2023-08-01T01:01:07;7.13;;;5.78;;
45764;SDS011;31474;45.332;10.230;2023-08-01T01:03:33;7.22;;;5.57;;
45764;SDS011;31474;45.332;10.230;2023-08-01T01:08:47;8.00;;;5.68;;
45764;SDS011;31474;45.332;10.230;2023-08-01T01:11:13;6.55;;;5.40;;
45764;SDS011;31474;45.332;10.230;2023-08-01T01:13:39;6.15;;;5.47;;
45764;SDS011;31474;45.332;10.230;2023-08-01T01:16:05;6.10;;;5.40;;
45764;SDS011;31474;45.332;10.230;2023-08-01T01:18:30;8.02;;;5.25;;
45764;SDS011;31474;45.332;10.230;2023-08-01T01:20:56;6.10;;;5.50;;
45764;SDS011;31474;45.332;10.230;2023-08-01T01:23:22;6.28;;;5.50;;
45764;SDS011;31474;45.332;10.230;2023-08-01T01:25:49;8.43;;;6.95;;
45764;SDS011;31474;45.332;10.230;2023-08-01T01:28:16;9.05;;;7.13;;
45764;SDS011;31474;45.332;10.230;2023-08-01T01:30:43;8.38;;;6.28;;
45764;SDS011;31474;45.332;10.230;2023-08-01T01:33:10;9.15;;;6.93;;
45764;SDS011;31474;45.332;10.230;2023-08-01T01:35:36;7.53;;;6.72;;
45764;SDS011;31474;45.332;10.230;2023-08-01T01:38:02;7.40;;;6.70;;
45764;SDS011;31474;45.332;10.230;2023-08-01T01:40:31;7.18;;;6.47;;
45764;SDS011;31474;45.332;10.230;2023-08-01T01:42:58;8.40;;;6.10;;
45764;SDS011;31474;45.332;10.230;2023-08-01T01:45:25;6.43;;;5.82;;
45764;SDS011;31474;45.332;10.230;2023-08-01T01:47:51;7.05;;;6.35;;
45764;SDS011;31474;45.332;10.230;2023-08-01T01:50:17;6.72;;;6.13;;
45764;SDS011;31474;45.332;10.230;2023-08-01T01:52:43;6.90;;;6.20;;
45764;SDS011;31474;45.332;10.230;2023-08-01T01:55:09;7.63;;;6.78;;
45764;SDS011;31474;45.332;10.230;2023-08-01T01:57:35;9.80;;;6.75;;
45764;SDS011;31474;45.332;10.230;2023-08-01T02:00:02;8.10;;;6.00;;
45764;SDS011;31474;45.332;10.230;2023-08-01T02:02:35;7.75;;;6.97;;
45764;SDS011;31474;45.332;10.230;2023-08-01T02:05:01;9.20;;;7.32;;
45764;SDS011;31474;45.332;10.230;2023-08-01T02:07:26;9.20;;;7.05;;
45764;SDS011;31474;45.332;10.230;2023-08-01T02:09:52;9.18;;;6.93;;
45764;SDS011;31474;45.332;10.230;2023-08-01T02:12:18;9.68;;;7.63;;
45764;SDS011;31474;45.332;10.230;2023-08-01T02:14:43;11.80;;;8.15;;
45764;SDS011;31474;45.332;10.230;2023-08-01T02:17:09;9.50;;;7.78;;
45764;SDS011;31474;45.332;10.230;2023-08-01T02:19:35;10.32;;;7.50;;
45764;SDS011;31474;45.332;10.230;2023-08-01T02:22:00;10.43;;;7.95;;
45764;SDS011;31474;45.332;10.230;2023-08-01T02:24:26;8.88;;;6.72;;
45764;SDS011;31474;45.332;10.230;2023-08-01T02:26:52;7.13;;;6.43;;
45764;SDS011;31474;45.332;10.230;2023-08-01T02:29:17;7.22;;;6.50;;
45764;SDS011;31474;45.332;10.230;2023-08-01T02:31:43;7.60;;;6.65;;
45764;SDS011;31474;45.332;10.230;2023-08-01T02:34:09;10.15;;;7.00;;
45764;SDS011;31474;45.332;10.230;2023-08-01T02:36:34;8.98;;;7.35;;
45764;SDS011;31474;45.332;10.230;2023-08-01T02:39:00;7.72;;;6.47;;
45764;SDS011;31474;45.332;10.230;2023-08-01T02:41:25;7.88;;;7.07;;
45764;SDS011;31474;45.332;10.230;2023-08-01T02:43:51;7.68;;;6.88;;
45764;SDS011;31474;45.332;10.230;2023-08-01T02:46:17;7.82;;;7.03;;
45764;SDS011;31474;45.332;10.230;2023-08-01T02:48:42;11.65;;;6.57;;
45764;SDS011;31474;45.332;10.230;2023-08-01T02:51:08;8.27;;;6.30;;
45764;SDS011;31474;45.332;10.230;2023-08-01T02:53:35;8.18;;;7.38;;
45764;SDS011;31474;45.332;10.230;2023-08-01T02:56:01;7.57;;;6.43;;
45764;SDS011;31474;45.332;10.230;2023-08-01T02:58:28;9.23;;;7.22;;
45764;SDS011;31474;45.332;10.230;2023-08-01T03:00:53;9.43;;;6.35;;
45764;SDS011;31474;45.332;10.230;2023-08-01T03:03:19;8.45;;;7.65;;
45764;SDS011;31474;45.332;10.230;2023-08-01T03:05:45;12.93;;;6.82;;
45764;SDS011;31474;45.332;10.230;2023-08-01T03:08:10;7.97;;;7.25;;
45764;SDS011;31474;45.332;10.230;2023-08-01T03:10:36;7.82;;;7.07;;
45764;SDS011;31474;45.332;10.230;2023-08-01T03:13:01;7.90;;;6.53;;
45764;SDS011;31474;45.332;10.230;2023-08-01T03:15:27;7.55;;;6.05;;
45764;SDS011;31474;45.332;10.230;2023-08-01T03:17:53;7.88;;;6.93;;
45764;SDS011;31474;45.332;10.230;2023-08-01T03:20:19;8.13;;;6.97;;
45764;SDS011;31474;45.332;10.230;2023-08-01T03:22:44;9.57;;;7.05;;
45764;SDS011;31474;45.332;10.230;2023-08-01T03:25:10;7.40;;;6.70;;
45764;SDS011;31474;45.332;10.230;2023-08-01T03:27:36;8.27;;;7.38;;
45764;SDS011;31474;45.332;10.230;2023-08-01T03:30:02;8.55;;;7.22;;
45764;SDS011;31474;45.332;10.230;2023-08-01T03:32:29;8.55;;;7.35;;
45764;SDS011;31474;45.332;10.230;2023-08-01T03:34:55;7.72;;;6.82;;
45764;SDS011;31474;45.332;10.230;2023-08-01T03:37:21;10.52;;;7.28;;
45764;SDS011;31474;45.332;10.230;2023-08-01T03:39:47;9.35;;;7.55;;
45764;SDS011;31474;45.332;10.230;2023-08-01T03:42:12;10.82;;;8.50;;
45764;SDS011;31474;45.332;10.230;2023-08-01T03:44:38;12.00;;;7.43;;
45764;SDS011;31474;45.332;10.230;2023-08-01T03:47:04;8.30;;;7.35;;
45764;SDS011;31474;45.332;10.230;2023-08-01T03:49:29;9.27;;;7.70;;
45764;SDS011;31474;45.332;10.230;2023-08-01T03:51:55;10.43;;;7.43;;
45764;SDS011;31474;45.332;10.230;2023-08-01T03:54:21;8.55;;;7.72;;
45764;SDS011;31474;45.332;10.230;2023-08-01T03:56:46;7.60;;;6.85;;
45764;SDS011;31474;45.332;10.230;2023-08-01T03:59:15;9.68;;;7.05;;
45764;SDS011;31474;45.332;10.230;2023-08-01T04:01:41;9.57;;;7.90;;
45764;SDS011;31474;45.332;10.230;2023-08-01T04:04:08;7.90;;;6.95;;
45764;SDS011;31474;45.332;10.230;2023-08-01T04:06:34;8.65;;;6.68;;
45764;SDS011;31474;45.332;10.230;2023-08-01T04:08:59;7.82;;;7.03;;
45764;SDS011;31474;45.332;10.230;2023-08-01T04:11:25;7.75;;;7.00;;
45764;SDS011;31474;45.332;10.230;2023-08-01T04:13:52;11.40;;;8.07;;
45764;SDS011;31474;45.332;10.230;2023-08-01T04:16:18;9.23;;;6.70;;
45764;SDS011;31474;45.332;10.230;2023-08-01T04:18:44;8.30;;;6.78;;
45764;SDS011;31474;45.332;10.230;2023-08-01T04:21:11;9.07;;;8.00;;
45764;SDS011;31474;45.332;10.230;2023-08-01T04:23:38;10.68;;;8.05;;
45764;SDS011;31474;45.332;10.230;2023-08-01T04:26:04;10.93;;;7.90;;
45764;SDS011;31474;45.332;10.230;2023-08-01T04:28:31;8.73;;;7.85;;
45764;SDS011;31474;45.332;10.230;2023-08-01T04:30:57;8.18;;;7.38;;
45764;SDS011;31474;45.332;10.230;2023-08-01T04:33:22;8.85;;;7.15;;
45764;SDS011;31474;45.332;10.230;2023-08-01T04:35:48;8.52;;;7.47;;
45764;SDS011;31474;45.332;10.230;2023-08-01T04:38:14;8.80;;;7.38;;
45764;SDS011;31474;45.332;10.230;2023-08-01T04:40:40;8.07;;;7.28;;
45764;SDS011;31474;45.332;10.230;2023-08-01T04:43:06;9.00;;;7.50;;
45764;SDS011;31474;45.332;10.230;2023-08-01T04:45:32;11.25;;;7.82;;
45764;SDS011;31474;45.332;10.230;2023-08-01T04:47:57;8.48;;;7.15;;
45764;SDS011;31474;45.332;10.230;2023-08-01T04:50:23;7.85;;;7.13;;
45764;SDS011;31474;45.332;10.230;2023-08-01T04:52:48;9.13;;;7.22;;
45764;SDS011;31474;45.332;10.230;2023-08-01T04:55:14;7.95;;;7.18;;
45764;SDS011;31474;45.332;10.230;2023-08-01T04:57:40;9.75;;;7.32;;
45764;SDS011;31474;45.332;10.230;2023-08-01T05:00:06;8.55;;;7.70;;
45764;SDS011;31474;45.332;10.230;2023-08-01T05:02:32;10.10;;;8.15;;
45764;SDS011;31474;45.332;10.230;2023-08-01T05:04:57;9.70;;;8.32;;
45764;SDS011;31474;45.332;10.230;2023-08-01T05:07:23;11.05;;;8.57;;
45764;SDS011;31474;45.332;10.230;2023-08-01T05:09:49;10.40;;;9.02;;
45764;SDS011;31474;45.332;10.230;2023-08-01T05:12:14;10.02;;;8.63;;
45764;SDS011;31474;45.332;10.230;2023-08-01T05:14:40;9.02;;;7.50;;
45764;SDS011;31474;45.332;10.230;2023-08-01T05:17:06;7.93;;;7.05;;
45764;SDS011;31474;45.332;10.230;2023-08-01T05:19:31;7.93;;;7.13;;
45764;SDS011;31474;45.332;10.230;2023-08-01T05:21:57;9.00;;;7.82;;
45764;SDS011;31474;45.332;10.230;2023-08-01T05:24:22;16.05;;;8.25;;
45764;SDS011;31474;45.332;10.230;2023-08-01T05:26:48;10.07;;;7.63;;
45764;SDS011;31474;45.332;10.230;2023-08-01T05:29:14;9.15;;;7.90;;
45764;SDS011;31474;45.332;10.230;2023-08-01T05:31:39;9.05;;;8.15;;
45764;SDS011;31474;45.332;10.230;2023-08-01T05:34:05;11.10;;;8.90;;
45764;SDS011;31474;45.332;10.230;2023-08-01T05:36:31;10.10;;;9.10;;
45764;SDS011;31474;45.332;10.230;2023-08-01T05:38:56;10.82;;;8.85;;
45764;SDS011;31474;45.332;10.230;2023-08-01T05:41:22;15.20;;;9.52;;
45764;SDS011;31474;45.332;10.230;2023-08-01T05:43:48;11.60;;;9.30;;
45764;SDS011;31474;45.332;10.230;2023-08-01T05:46:15;13.25;;;9.88;;
45764;SDS011;31474;45.332;10.230;2023-08-01T05:48:41;11.27;;;10.18;;
45764;SDS011;31474;45.332;10.230;2023-08-01T05:51:06;10.93;;;9.52;;
45764;SDS011;31474;45.332;10.230;2023-08-01T05:53:32;14.93;;;9.63;;
45764;SDS011;31474;45.332;10.230;2023-08-01T05:55:58;10.60;;;9.23;;
45764;SDS011;31474;45.332;10.230;2023-08-01T05:58:24;12.38;;;10.13;;
45764;SDS011;31474;45.332;10.230;2023-08-01T06:00:49;11.02;;;9.43;;
45764;SDS011;31474;45.332;10.230;2023-08-01T06:03:15;15.18;;;9.32;;
45764;SDS011;31474;45.332;10.230;2023-08-01T06:05:41;14.18;;;9.65;;
45764;SDS011;31474;45.332;10.230;2023-08-01T06:08:07;11.45;;;9.32;;
45764;SDS011;31474;45.332;10.230;2023-08-01T06:10:33;10.70;;;9.60;;
45764;SDS011;31474;45.332;10.230;2023-08-01T06:13:00;11.52;;;9.90;;
45764;SDS011;31474;45.332;10.230;2023-08-01T06:15:25;14.32;;;9.45;;
45764;SDS011;31474;45.332;10.230;2023-08-01T06:17:51;15.20;;;9.20;;
45764;SDS011;31474;45.332;10.230;2023-08-01T06:20:17;12.27;;;9.38;;
45764;SDS011;31474;45.332;10.230;2023-08-01T06:22:43;9.90;;;8.80;;
45764;SDS011;31474;45.332;10.230;2023-08-01T06:25:08;12.27;;;8.43;;
45764;SDS011;31474;45.332;10.230;2023-08-01T06:27:34;11.20;;;9.05;;
45764;SDS011;31474;45.332;10.230;2023-08-01T06:30:00;11.18;;;9.15;;
45764;SDS011;31474;45.332;10.230;2023-08-01T06:32:26;11.15;;;8.55;;
45764;SDS011;31474;45.332;10.230;2023-08-01T06:34:51;9.07;;;8.00;;
45764;SDS011;31474;45.332;10.230;2023-08-01T06:37:17;10.75;;;8.70;;
45764;SDS011;31474;45.332;10.230;2023-08-01T06:39:43;9.40;;;7.88;;
45764;SDS011;31474;45.332;10.230;2023-08-01T06:42:08;8.73;;;7.82;;
45764;SDS011;31474;45.332;10.230;2023-08-01T06:44:34;12.82;;;8.32;;
45764;SDS011;31474;45.332;10.230;2023-08-01T06:47:00;10.45;;;8.82;;
45764;SDS011;31474;45.332;10.230;2023-08-01T06:49:25;9.88;;;8.07;;
45764;SDS011;31474;45.332;10.230;2023-08-01T06:51:51;11.88;;;8.23;;
45764;SDS011;31474;45.332;10.230;2023-08-01T06:54:17;14.60;;;9.80;;
45764;SDS011;31474;45.332;10.230;2023-08-01T06:56:42;10.90;;;9.60;;
45764;SDS011;31474;45.332;10.230;2023-08-01T06:59:12;10.98;;;8.35;;
45764;SDS011;31474;45.332;10.230;2023-08-01T07:01:39;11.55;;;8.60;;
45764;SDS011;31474;45.332;10.230;2023-08-01T07:04:08;12.32;;;9.25;;
45764;SDS011;31474;45.332;10.230;2023-08-01T07:06:34;9.00;;;8.10;;
45764;SDS011;31474;45.332;10.230;2023-08-01T07:09:00;11.23;;;7.95;;
45764;SDS011;31474;45.332;10.230;2023-08-01T07:11:25;10.07;;;7.85;;
45764;SDS011;31474;45.332;10.230;2023-08-01T07:13:51;14.48;;;8.45;;
45764;SDS011;31474;45.332;10.230;2023-08-01T07:16:17;8.45;;;7.30;;
45764;SDS011;31474;45.332;10.230;2023-08-01T07:18:42;9.60;;;7.75;;
45764;SDS011;31474;45.332;10.230;2023-08-01T07:21:08;7.90;;;7.10;;
45764;SDS011;31474;45.332;10.230;2023-08-01T07:23:34;7.53;;;6.50;;
45764;SDS011;31474;45.332;10.230;2023-08-01T07:26:03;8.80;;;6.82;;
45764;SDS011;31474;45.332;10.230;2023-08-01T07:28:29;6.97;;;6.03;;
45764;SDS011;31474;45.332;10.230;2023-08-01T07:31:12;7.97;;;5.60;;
45764;SDS011;31474;45.332;10.230;2023-08-01T07:33:38;7.85;;;5.43;;
45764;SDS011;31474;45.332;10.230;2023-08-01T07:36:03;9.88;;;5.00;;
45764;SDS011;31474;45.332;10.230;2023-08-01T07:38:29;5.55;;;4.80;;
45764;SDS011;31474;45.332;10.230;2023-08-01T07:41:01;5.97;;;4.78;;
45764;SDS011;31474;45.332;10.230;2023-08-01T07:43:29;5.28;;;4.45;;
45764;SDS011;31474;45.332;10.230;2023-08-01T07:45:56;5.07;;;4.50;;
45764;SDS011;31474;45.332;10.230;2023-08-01T07:48:22;5.80;;;4.25;;
45764;SDS011;31474;45.332;10.230;2023-08-01T07:50:47;5.70;;;4.78;;
45764;SDS011;31474;45.332;10.230;2023-08-01T07:53:13;5.85;;;5.25;;
45764;SDS011;31474;45.332;10.230;2023-08-01T07:55:39;5.50;;;4.97;;
45764;SDS011;31474;45.332;10.230;2023-08-01T07:58:04;7.45;;;4.82;;
45764;SDS011;31474;45.332;10.230;2023-08-01T08:00:30;6.63;;;4.80;;
45764;SDS011;31474;45.332;10.230;2023-08-01T08:02:56;5.07;;;4.47;;
45764;SDS011;31474;45.332;10.230;2023-08-01T08:05:22;11.32;;;5.38;;
45764;SDS011;31474;45.332;10.230;2023-08-01T08:07:48;8.02;;;5.35;;
45764;SDS011;31474;45.332;10.230;2023-08-01T08:10:13;9.80;;;5.10;;
45764;SDS011;31474;45.332;10.230;2023-08-01T08:12:40;7.18;;;4.47;;
45764;SDS011;31474;45.332;10.230;2023-08-01T08:15:05;4.45;;;3.97;;
45764;SDS011;31474;45.332;10.230;2023-08-01T08:17:31;5.00;;;3.83;;
45764;SDS011;31474;45.332;10.230;2023-08-01T08:19:57;5.55;;;3.20;;
45764;SDS011;31474;45.332;10.230;2023-08-01T08:22:23;3.47;;;2.75;;
45764;SDS011;31474;45.332;10.230;2023-08-01T08:24:49;4.03;;;2.90;;
45764;SDS011;31474;45.332;10.230;2023-08-01T08:27:15;4.88;;;3.20;;
45764;SDS011;31474;45.332;10.230;2023-08-01T08:29:41;6.38;;;3.65;;
45764;SDS011;31474;45.332;10.230;2023-08-01T08:32:06;6.10;;;3.58;;
45764;SDS011;31474;45.332;10.230;2023-08-01T08:34:32;9.38;;;2.95;;
45764;SDS011;31474;45.332;10.230;2023-08-01T08:36:58;4.75;;;3.08;;
45764;SDS011;31474;45.332;10.230;2023-08-01T08:39:23;3.97;;;3.20;;
45764;SDS011;31474;45.332;10.230;2023-08-01T08:41:50;5.72;;;3.13;;
45764;SDS011;31474;45.332;10.230;2023-08-01T08:44:17;6.30;;;3.30;;
45764;SDS011;31474;45.332;10.230;2023-08-01T08:46:46;6.30;;;3.97;;
45764;SDS011;31474;45.332;10.230;2023-08-01T08:49:20;8.93;;;3.95;;
45764;SDS011;31474;45.332;10.230;2023-08-01T08:51:46;7.13;;;5.13;;
45764;SDS011;31474;45.332;10.230;2023-08-01T08:54:14;10.80;;;4.65;;
45764;SDS011;31474;45.332;10.230;2023-08-01T08:56:41;7.13;;;4.25;;
45764;SDS011;31474;45.332;10.230;2023-08-01T08:59:07;5.80;;;4.30;;
45764;SDS011;31474;45.332;10.230;2023-08-01T09:01:35;6.32;;;4.20;;
45764;SDS011;31474;45.332;10.230;2023-08-01T09:04:01;6.53;;;4.55;;
45764;SDS011;31474;45.332;10.230;2023-08-01T09:06:37;10.77;;;4.80;;
45764;SDS011;31474;45.332;10.230;2023-08-01T09:09:10;5.13;;;3.80;;
45764;SDS011;31474;45.332;10.230;2023-08-01T09:11:41;7.10;;;3.88;;
45764;SDS011;31474;45.332;10.230;2023-08-01T09:14:15;6.28;;;4.03;;
45764;SDS011;31474;45.332;10.230;2023-08-01T09:16:41;10.45;;;5.75;;
45764;SDS011;31474;45.332;10.230;2023-08-01T09:19:08;8.07;;;5.35;;
45764;SDS011;31474;45.332;10.230;2023-08-01T09:21:34;7.47;;;4.88;;
45764;SDS011;31474;45.332;10.230;2023-08-01T09:24:09;8.57;;;5.57;;
45764;SDS011;31474;45.332;10.230;2023-08-01T09:26:45;10.20;;;4.97;;
45764;SDS011;31474;45.332;10.230;2023-08-01T09:29:12;8.00;;;4.47;;
45764;SDS011;31474;45.332;10.230;2023-08-01T09:31:39;5.45;;;4.00;;
45764;SDS011;31474;45.332;10.230;2023-08-01T09:34:06;5.78;;;4.28;;
45764;SDS011;31474;45.332;10.230;2023-08-01T09:36:45;8.32;;;4.95;;
45764;SDS011;31474;45.332;10.230;2023-08-01T09:39:15;9.07;;;4.60;;
45764;SDS011;31474;45.332;10.230;2023-08-01T09:41:42;7.60;;;4.30;;
45764;SDS011;31474;45.332;10.230;2023-08-01T09:44:11;7.72;;;4.38;;
45764;SDS011;31474;45.332;10.230;2023-08-01T09:46:40;8.60;;;5.93;;
45764;SDS011;31474;45.332;10.230;2023-08-01T09:49:10;9.02;;;4.75;;
45764;SDS011;31474;45.332;10.230;2023-08-01T09:51:49;7.28;;;4.13;;
45764;SDS011;31474;45.332;10.230;2023-08-01T09:54:16;7.50;;;5.07;;
45764;SDS011;31474;45.332;10.230;2023-08-01T09:56:45;8.45;;;5.88;;
45764;SDS011;31474;45.332;10.230;2023-08-01T09:59:14;11.60;;;5.20;;
45764;SDS011;31474;45.332;10.230;2023-08-01T10:01:44;8.70;;;5.53;;
45764;SDS011;31474;45.332;10.230;2023-08-01T10:06:59;7.55;;;4.63;;
45764;SDS011;31474;45.332;10.230;2023-08-01T10:09:31;10.98;;;4.75;;
45764;SDS011;31474;45.332;10.230;2023-08-01T10:11:58;5.88;;;4.40;;
45764;SDS011;31474;45.332;10.230;2023-08-01T10:14:25;8.90;;;4.90;;
45764;SDS011;31474;45.332;10.230;2023-08-01T10:16:51;8.90;;;5.85;;
45764;SDS011;31474;45.332;10.230;2023-08-01T10:19:18;7.32;;;5.78;;
45764;SDS011;31474;45.332;10.230;2023-08-01T10:21:45;7.57;;;5.50;;
45764;SDS011;31474;45.332;10.230;2023-08-01T10:24:13;7.82;;;5.28;;
45764;SDS011;31474;45.332;10.230;2023-08-01T10:26:39;6.68;;;5.47;;
45764;SDS011;31474;45.332;10.230;2023-08-01T10:29:05;8.07;;;6.30;;
45764;SDS011;31474;45.332;10.230;2023-08-01T10:31:31;8.15;;;5.38;;
45764;SDS011;31474;45.332;10.230;2023-08-01T10:34:04;6.50;;;5.13;;
45764;SDS011;31474;45.332;10.230;2023-08-01T10:36:32;12.38;;;6.30;;
45764;SDS011;31474;45.332;10.230;2023-08-01T10:38:58;6.47;;;5.25;;
45764;SDS011;31474;45.332;10.230;2023-08-01T10:41:29;7.15;;;5.30;;
45764;SDS011;31474;45.332;10.230;2023-08-01T10:44:06;9.90;;;5.72;;
45764;SDS011;31474;45.332;10.230;2023-08-01T10:52:16;8.32;;;6.43;;
45764;SDS011;31474;45.332;10.230;2023-08-01T10:54:58;8.95;;;6.03;;
45764;SDS011;31474;45.332;10.230;2023-08-01T10:57:28;7.43;;;5.88;;
45764;SDS011;31474;45.332;10.230;2023-08-01T10:59:55;6.40;;;5.35;;
45764;SDS011;31474;45.332;10.230;2023-08-01T11:02:23;8.55;;;5.70;;
45764;SDS011;31474;45.332;10.230;2023-08-01T11:05:00;12.07;;;5.43;;
45764;SDS011;31474;45.332;10.230;2023-08-01T11:07:28;6.22;;;4.97;;
45764;SDS011;31474;45.332;10.230;2023-08-01T11:12:28;8.27;;;5.20;;
45764;SDS011;31474;45.332;10.230;2023-08-01T11:14:59;5.20;;;4.15;;
45764;SDS011;31474;45.332;10.230;2023-08-01T11:17:25;10.50;;;5.07;;
45764;SDS011;31474;45.332;10.230;2023-08-01T11:19:51;6.53;;;4.53;;
45764;SDS011;31474;45.332;10.230;2023-08-01T11:22:24;7.65;;;5.18;;
45764;SDS011;31474;45.332;10.230;2023-08-01T11:24:50;7.38;;;5.28;;
45764;SDS011;31474;45.332;10.230;2023-08-01T11:27:16;7.15;;;4.60;;
45764;SDS011;31474;45.332;10.230;2023-08-01T11:29:41;8.20;;;4.20;;
45764;SDS011;31474;45.332;10.230;2023-08-01T11:32:07;7.88;;;4.70;;
45764;SDS011;31474;45.332;10.230;2023-08-01T11:34:39;8.45;;;4.25;;
45764;SDS011;31474;45.332;10.230;2023-08-01T11:37:12;8.73;;;5.75;;
45764;SDS011;31474;45.332;10.230;2023-08-01T11:39:39;7.82;;;4.90;;
45764;SDS011;31474;45.332;10.230;2023-08-01T11:42:05;9.05;;;5.55;;
45764;SDS011;31474;45.332;10.230;2023-08-01T11:44:31;7.15;;;4.32;;
45764;SDS011;31474;45.332;10.230;2023-08-01T11:46:57;7.75;;;5.47;;
45764;SDS011;31474;45.332;10.230;2023-08-01T11:49:23;7.88;;;5.80;;
45764;SDS011;31474;45.332;10.230;2023-08-01T11:51:49;8.02;;;5.03;;
45764;SDS011;31474;45.332;10.230;2023-08-01T11:54:14;7.95;;;4.60;;
45764;SDS011;31474;45.332;10.230;2023-08-01T11:56:41;9.13;;;4.78;;
45764;SDS011;31474;45.332;10.230;2023-08-01T11:59:10;11.90;;;5.40;;
45764;SDS011;31474;45.332;10.230;2023-08-01T12:01:38;5.18;;;4.18;;
45764;SDS011;31474;45.332;10.230;2023-08-01T12:04:04;5.70;;;4.50;;
45764;SDS011;31474;45.332;10.230;2023-08-01T12:06:31;6.68;;;4.47;;
45764;SDS011;31474;45.332;10.230;2023-08-01T12:09:05;5.63;;;4.40;;
45764;SDS011;31474;45.332;10.230;2023-08-01T12:11:35;5.85;;;4.68;;
45764;SDS011;31474;45.332;10.230;2023-08-01T12:16:34;6.35;;;4.30;;
45764;SDS011;31474;45.332;10.230;2023-08-01T12:19:00;7.63;;;4.80;;
45764;SDS011;31474;45.332;10.230;2023-08-01T12:21:26;5.88;;;4.55;;
45764;SDS011;31474;45.332;10.230;2023-08-01T12:23:52;5.18;;;4.20;;
45764;SDS011;31474;45.332;10.230;2023-08-01T12:26:18;9.55;;;4.50;;
45764;SDS011;31474;45.332;10.230;2023-08-01T12:28:43;8.00;;;4.70;;
45764;SDS011;31474;45.332;10.230;2023-08-01T12:31:09;7.32;;;5.20;;
45764;SDS011;31474;45.332;10.230;2023-08-01T12:33:35;8.60;;;4.65;;
45764;SDS011;31474;45.332;10.230;2023-08-01T12:36:00;8.27;;;4.70;;
45764;SDS011;31474;45.332;10.230;2023-08-01T12:38:28;7.82;;;5.07;;
45764;SDS011;31474;45.332;10.230;2023-08-01T12:40:54;6.85;;;5.22;;
45764;SDS011;31474;45.332;10.230;2023-08-01T12:43:19;5.07;;;4.47;;
45764;SDS011;31474;45.332;10.230;2023-08-01T12:45:46;5.70;;;3.75;;
45764;SDS011;31474;45.332;10.230;2023-08-01T12:48:12;5.88;;;4.38;;
45764;SDS011;31474;45.332;10.230;2023-08-01T12:50:37;6.00;;;3.90;;
45764;SDS011;31474;45.332;10.230;2023-08-01T12:53:03;5.32;;;3.63;;
45764;SDS011;31474;45.332;10.230;2023-08-01T12:55:29;7.53;;;4.10;;
45764;SDS011;31474;45.332;10.230;2023-08-01T12:57:54;8.63;;;4.38;;
45764;SDS011;31474;45.332;10.230;2023-08-01T13:00:20;6.53;;;3.78;;
45764;SDS011;31474;45.332;10.230;2023-08-01T13:02:46;6.30;;;3.88;;
45764;SDS011;31474;45.332;10.230;2023-08-01T13:05:12;5.97;;;3.80;;
45764;SDS011;31474;45.332;10.230;2023-08-01T13:07:38;12.52;;;4.82;;
45764;SDS011;31474;45.332;10.230;2023-08-01T13:10:03;8.80;;;5.57;;
45764;SDS011;31474;45.332;10.230;2023-08-01T13:12:29;7.20;;;5.28;;
45764;SDS011;31474;45.332;10.230;2023-08-01T13:14:55;6.78;;;5.10;;
45764;SDS011;31474;45.332;10.230;2023-08-01T13:17:21;11.02;;;5.18;;
45764;SDS011;31474;45.332;10.230;2023-08-01T13:22:40;10.40;;;6.53;;
45764;SDS011;31474;45.332;10.230;2023-08-01T13:25:05;5.53;;;4.50;;
45764;SDS011;31474;45.332;10.230;2023-08-01T13:27:33;12.95;;;5.28;;
45764;SDS011;31474;45.332;10.230;2023-08-01T13:30:00;11.05;;;5.18;;
45764;SDS011;31474;45.332;10.230;2023-08-01T13:32:25;7.30;;;4.60;;
45764;SDS011;31474;45.332;10.230;2023-08-01T13:34:51;7.38;;;5.00;;
45764;SDS011;31474;45.332;10.230;2023-08-01T13:37:17;6.72;;;4.25;;
45764;SDS011;31474;45.332;10.230;2023-08-01T13:39:42;7.15;;;4.22;;
45764;SDS011;31474;45.332;10.230;2023-08-01T13:42:10;9.40;;;4.32;;
45764;SDS011;31474;45.332;10.230;2023-08-01T13:44:39;6.90;;;4.47;;
45764;SDS011;31474;45.332;10.230;2023-08-01T13:47:05;7.20;;;4.72;;
45764;SDS011;31474;45.332;10.230;2023-08-01T13:49:31;10.38;;;5.00;;
45764;SDS011;31474;45.332;10.230;2023-08-01T13:51:57;9.65;;;4.90;;
45764;SDS011;31474;45.332;10.230;2023-08-01T13:54:24;7.75;;;4.90;;
45764;SDS011;31474;45.332;10.230;2023-08-01T13:56:49;7.20;;;4.25;;
45764;SDS011;31474;45.332;10.230;2023-08-01T13:59:15;8.20;;;4.00;;
45764;SDS011;31474;45.332;10.230;2023-08-01T14:01:40;7.88;;;4.43;;
45764;SDS011;31474;45.332;10.230;2023-08-01T14:04:06;7.22;;;3.42;;
45764;SDS011;31474;45.332;10.230;2023-08-01T14:06:32;5.50;;;3.92;;
45764;SDS011;31474;45.332;10.230;2023-08-01T14:08:58;5.15;;;3.28;;
45764;SDS011;31474;45.332;10.230;2023-08-01T14:11:24;8.30;;;3.50;;
45764;SDS011;31474;45.332;10.230;2023-08-01T14:13:49;4.30;;;3.17;;
45764;SDS011;31474;45.332;10.230;2023-08-01T14:16:15;8.43;;;4.13;;
45764;SDS011;31474;45.332;10.230;2023-08-01T14:18:42;5.22;;;3.58;;
45764;SDS011;31474;45.332;10.230;2023-08-01T14:21:09;5.72;;;3.20;;
45764;SDS011;31474;45.332;10.230;2023-08-01T14:23:34;5.63;;;3.38;;
45764;SDS011;31474;45.332;10.230;2023-08-01T14:26:02;6.85;;;3.38;;
45764;SDS011;31474;45.332;10.230;2023-08-01T14:28:28;4.97;;;3.63;;
45764;SDS011;31474;45.332;10.230;2023-08-01T14:30:54;7.82;;;3.85;;
45764;SDS011;31474;45.332;10.230;2023-08-01T14:33:20;6.47;;;3.10;;
45764;SDS011;31474;45.332;10.230;2023-08-01T14:35:46;8.30;;;3.75;;
45764;SDS011;31474;45.332;10.230;2023-08-01T14:38:11;7.43;;;3.88;;
45764;SDS011;31474;45.332;10.230;2023-08-01T14:40:37;7.97;;;4.53;;
45764;SDS011;31474;45.332;10.230;2023-08-01T14:43:04;8.13;;;4.10;;
45764;SDS011;31474;45.332;10.230;2023-08-01T14:45:30;6.90;;;3.80;;